sensor_id;sensor_type;location;lat;lon;timestamp;pressure;altitude;pressure_sealevel;temperature;humidity
72925;BME280;61070;50.794;7.054;2023-02-04T00:00:45;102304.44;;;8.25;95.73
72925;BME280;61070;50.794;7.054;2023-02-04T00:03:12;102320.59;;;8.37;95.82
72925;BME280;61070;50.794;7.054;2023-02-04T00:05:37;102328.03;;;8.17;95.87
72925;BME280;61070;50.794;7.054;2023-02-04T00:08:02;102327.09;;;8.15;94.74
72925;BME280;61070;50.794;7.054;2023-02-04T00:10:28;102329.69;;;8.14;95.26
72925;BME280;61070;50.794;7.054;2023-02-04T00:12:53;102329.69;;;8.14;95.56
72925;BME280;61070;50.794;7.054;2023-02-04T00:15:19;102334.09;;;8.15;95.42
72925;BME280;61070;50.794;7.054;2023-02-04T00:17:44;102323.94;;;8.30;93.94
72925;BME280;61070;50.794;7.054;2023-02-04T00:20:09;102333.41;;;8.22;93.54
72925;BME280;61070;50.794;7.054;2023-02-04T00:22:35;102340.50;;;8.25;93.45
72925;BME280;61070;50.794;7.054;2023-02-04T00:25:00;102356.94;;;8.13;94.60
72925;BME280;61070;50.794;7.054;2023-02-04T00:27:26;102348.25;;;8.17;93.80
72925;BME280;61070;50.794;7.054;2023-02-04T00:29:51;102343.88;;;8.17;92.83
72925;BME280;61070;50.794;7.054;2023-02-04T00:32:16;102352.91;;;8.27;92.16
72925;BME280;61070;50.794;7.054;2023-02-04T00:34:41;102350.03;;;8.18;92.44
72925;BME280;61070;50.794;7.054;2023-02-04T00:37:07;102347.19;;;8.10;92.79
72925;BME280;61070;50.794;7.054;2023-02-04T00:39:32;102352.44;;;8.09;92.89
72925;BME280;61070;50.794;7.054;2023-02-04T00:41:58;102352.50;;;8.12;92.55
72925;BME280;61070;50.794;7.054;2023-02-04T00:44:23;102365.00;;;8.19;91.61
72925;BME280;61070;50.794;7.054;2023-02-04T00:46:48;102364.88;;;8.14;91.77
72925;BME280;61070;50.794;7.054;2023-02-04T00:49:13;102365.78;;;8.15;91.47
72925;BME280;61070;50.794;7.054;2023-02-04T00:51:40;102368.09;;;8.03;91.72
72925;BME280;61070;50.794;7.054;2023-02-04T00:54:10;102360.19;;;8.03;91.91
72925;BME280;61070;50.794;7.054;2023-02-04T00:56:36;102368.94;;;8.00;91.63
72925;BME280;61070;50.794;7.054;2023-02-04T00:59:01;102362.81;;;8.03;90.94
72925;BME280;61070;50.794;7.054;2023-02-04T01:01:26;102373.53;;;8.07;91.50
72925;BME280;61070;50.794;7.054;2023-02-04T01:03:51;102374.34;;;8.05;91.64
72925;BME280;61070;50.794;7.054;2023-02-04T01:06:17;102376.84;;;8.00;91.58
72925;BME280;61070;50.794;7.054;2023-02-04T01:08:42;102368.16;;;8.04;90.65
72925;BME280;61070;50.794;7.054;2023-02-04T01:11:07;102377.78;;;8.02;90.73
72925;BME280;61070;50.794;7.054;2023-02-04T01:13:33;102377.59;;;7.95;90.55
72925;BME280;61070;50.794;7.054;2023-02-04T01:15:58;102384.56;;;7.93;90.90
72925;BME280;61070;50.794;7.054;2023-02-04T01:18:23;102379.38;;;7.96;90.86
72925;BME280;61070;50.794;7.054;2023-02-04T01:20:49;102382.91;;;7.96;90.60
72925;BME280;61070;50.794;7.054;2023-02-04T01:23:14;102385.59;;;7.98;90.87
72925;BME280;61070;50.794;7.054;2023-02-04T01:25:39;102395.03;;;7.89;90.68
72925;BME280;61070;50.794;7.054;2023-02-04T01:28:04;102396.09;;;7.96;91.24
72925;BME280;61070;50.794;7.054;2023-02-04T01:30:30;102401.19;;;7.90;90.47
72925;BME280;61070;50.794;7.054;2023-02-04T01:32:55;102409.97;;;7.89;90.69
72925;BME280;61070;50.794;7.054;2023-02-04T01:35:20;102399.41;;;7.89;90.80
72925;BME280;61070;50.794;7.054;2023-02-04T01:37:45;102398.72;;;7.95;90.37
72925;BME280;61070;50.794;7.054;2023-02-04T01:40:11;102398.66;;;7.93;90.97
72925;BME280;61070;50.794;7.054;2023-02-04T01:42:37;102414.44;;;7.92;90.95
72925;BME280;61070;50.794;7.054;2023-02-04T01:45:03;102406.34;;;7.84;90.96
72925;BME280;61070;50.794;7.054;2023-02-04T01:47:30;102407.38;;;7.91;91.00
72925;BME280;61070;50.794;7.054;2023-02-04T01:49:56;102416.75;;;7.79;91.29
72925;BME280;61070;50.794;7.054;2023-02-04T01:52:22;102410.56;;;7.79;91.62
72925;BME280;61070;50.794;7.054;2023-02-04T01:54:48;102410.78;;;7.86;90.80
72925;BME280;61070;50.794;7.054;2023-02-04T01:57:15;102413.22;;;7.79;91.33
72925;BME280;61070;50.794;7.054;2023-02-04T01:59:45;102425.66;;;7.83;91.13
72925;BME280;61070;50.794;7.054;2023-02-04T02:05:15;102430.91;;;7.81;92.07
72925;BME280;61070;50.794;7.054;2023-02-04T02:07:41;102436.75;;;7.71;91.87
72925;BME280;61070;50.794;7.054;2023-02-04T02:10:10;102441.06;;;7.69;91.75
72925;BME280;61070;50.794;7.054;2023-02-04T02:12:36;102444.69;;;7.71;92.09
72925;BME280;61070;50.794;7.054;2023-02-04T02:15:02;102445.41;;;7.67;92.15
72925;BME280;61070;50.794;7.054;2023-02-04T02:17:28;102433.38;;;7.77;91.56
72925;BME280;61070;50.794;7.054;2023-02-04T02:19:53;102446.41;;;7.71;91.61
72925;BME280;61070;50.794;7.054;2023-02-04T02:22:46;102451.47;;;7.63;92.05
72925;BME280;61070;50.794;7.054;2023-02-04T02:25:13;102442.03;;;7.71;91.63
72925;BME280;61070;50.794;7.054;2023-02-04T02:27:39;102451.47;;;7.63;91.98
72925;BME280;61070;50.794;7.054;2023-02-04T02:30:06;102448.66;;;7.57;91.73
72925;BME280;61070;50.794;7.054;2023-02-04T02:32:33;102453.19;;;7.61;91.64
72925;BME280;61070;50.794;7.054;2023-02-04T02:34:59;102451.44;;;7.62;92.00
72925;BME280;61070;50.794;7.054;2023-02-04T02:37:24;102464.50;;;7.58;91.38
72925;BME280;61070;50.794;7.054;2023-02-04T02:39:50;102459.19;;;7.57;91.66
72925;BME280;61070;50.794;7.054;2023-02-04T02:42:16;102463.53;;;7.55;91.44
72925;BME280;61070;50.794;7.054;2023-02-04T02:44:44;102467.34;;;7.65;91.38
72925;BME280;61070;50.794;7.054;2023-02-04T02:47:12;102467.78;;;7.50;92.01
72925;BME280;61070;50.794;7.054;2023-02-04T02:49:40;102466.09;;;7.52;92.13
72925;BME280;61070;50.794;7.054;2023-02-04T02:52:09;102470.50;;;7.53;92.64
72925;BME280;61070;50.794;7.054;2023-02-04T02:54:35;102463.41;;;7.50;93.05
72925;BME280;61070;50.794;7.054;2023-02-04T02:57:00;102468.69;;;7.50;93.34
72925;BME280;61070;50.794;7.054;2023-02-04T02:59:26;102468.69;;;7.50;93.67
72925;BME280;61070;50.794;7.054;2023-02-04T03:01:58;102467.91;;;7.54;93.05
72925;BME280;61070;50.794;7.054;2023-02-04T03:04:26;102470.44;;;7.50;94.30
72925;BME280;61070;50.794;7.054;2023-02-04T03:06:53;102474.56;;;7.42;95.03
72925;BME280;61070;50.794;7.054;2023-02-04T03:09:20;102483.31;;;7.39;96.67
72925;BME280;61070;50.794;7.054;2023-02-04T03:11:47;102479.66;;;7.36;98.13
72925;BME280;61070;50.794;7.054;2023-02-04T03:14:12;102486.47;;;7.27;99.76
72925;BME280;61070;50.794;7.054;2023-02-04T03:16:38;102488.69;;;7.44;99.43
72925;BME280;61070;50.794;7.054;2023-02-04T03:19:05;102490.88;;;7.28;100.00
72925;BME280;61070;50.794;7.054;2023-02-04T03:21:31;102501.34;;;7.25;100.00
72925;BME280;61070;50.794;7.054;2023-02-04T03:23:57;102502.91;;;7.20;100.00
72925;BME280;61070;50.794;7.054;2023-02-04T03:26:26;102502.34;;;7.30;100.00
72925;BME280;61070;50.794;7.054;2023-02-04T03:28:55;102499.25;;;7.15;100.00
72925;BME280;61070;50.794;7.054;2023-02-04T03:31:20;102499.53;;;7.24;100.00
72925;BME280;61070;50.794;7.054;2023-02-04T03:33:46;102503.47;;;7.10;100.00
72925;BME280;61070;50.794;7.054;2023-02-04T03:36:11;102505.47;;;7.17;100.00
72925;BME280;61070;50.794;7.054;2023-02-04T03:38:36;102508.16;;;7.19;100.00
72925;BME280;61070;50.794;7.054;2023-02-04T03:41:02;102519.28;;;7.10;100.00
72925;BME280;61070;50.794;7.054;2023-02-04T03:43:27;102511.28;;;7.07;100.00
72925;BME280;61070;50.794;7.054;2023-02-04T03:45:53;102522.19;;;7.18;100.00
72925;BME280;61070;50.794;7.054;2023-02-04T03:48:18;102509.56;;;7.08;100.00
72925;BME280;61070;50.794;7.054;2023-02-04T03:50:44;102518.34;;;7.08;100.00
72925;BME280;61070;50.794;7.054;2023-02-04T03:53:09;102516.75;;;7.13;100.00
72925;BME280;61070;50.794;7.054;2023-02-04T03:55:35;102512.16;;;7.06;100.00
72925;BME280;61070;50.794;7.054;2023-02-04T03:58:01;102525.63;;;7.15;100.00
72925;BME280;61070;50.794;7.054;2023-02-04T04:00:26;102522.50;;;7.01;100.00
72925;BME280;61070;50.794;7.054;2023-02-04T04:02:52;102530.94;;;7.17;100.00
72925;BME280;61070;50.794;7.054;2023-02-04T04:05:17;102528.25;;;7.15;100.00
72925;BME280;61070;50.794;7.054;2023-02-04T04:07:42;102519.38;;;7.13;100.00
72925;BME280;61070;50.794;7.054;2023-02-04T04:10:10;102529.66;;;7.04;100.00
72925;BME280;61070;50.794;7.054;2023-02-04T04:12:35;102532.28;;;7.04;100.00
72925;BME280;61070;50.794;7.054;2023-02-04T04:15:00;102527.34;;;7.15;100.00
72925;BME280;61070;50.794;7.054;2023-02-04T04:17:26;102529.69;;;7.06;100.00
72925;BME280;61070;50.794;7.054;2023-02-04T04:19:51;102530.25;;;6.95;100.00
72925;BME280;61070;50.794;7.054;2023-02-04T04:22:16;102532.63;;;7.15;100.00
72925;BME280;61070;50.794;7.054;2023-02-04T04:24:42;102530.50;;;7.03;100.00
72925;BME280;61070;50.794;7.054;2023-02-04T04:27:07;102532.38;;;7.07;100.00
72925;BME280;61070;50.794;7.054;2023-02-04T04:29:32;102538.44;;;7.05;100.00
72925;BME280;61070;50.794;7.054;2023-02-04T04:31:58;102531.22;;;6.99;100.00
72925;BME280;61070;50.794;7.054;2023-02-04T04:34:23;102533.00;;;7.00;100.00
72925;BME280;61070;50.794;7.054;2023-02-04T04:36:48;102530.28;;;6.97;100.00
72925;BME280;61070;50.794;7.054;2023-02-04T04:39:14;102532.53;;;6.85;100.00
72925;BME280;61070;50.794;7.054;2023-02-04T04:41:39;102531.91;;;6.92;100.00
72925;BME280;61070;50.794;7.054;2023-02-04T04:44:04;102540.16;;;6.77;100.00
72925;BME280;61070;50.794;7.054;2023-02-04T04:46:30;102538.69;;;6.85;100.00
72925;BME280;61070;50.794;7.054;2023-02-04T04:48:55;102544.97;;;6.90;100.00
72925;BME280;61070;50.794;7.054;2023-02-04T04:51:20;102544.97;;;6.90;100.00
72925;BME280;61070;50.794;7.054;2023-02-04T04:53:45;102552.69;;;6.84;100.00
72925;BME280;61070;50.794;7.054;2023-02-04T04:56:11;102550.97;;;6.85;100.00
72925;BME280;61070;50.794;7.054;2023-02-04T04:58:36;102560.38;;;6.78;100.00
72925;BME280;61070;50.794;7.054;2023-02-04T05:01:01;102564.03;;;6.82;100.00
72925;BME280;61070;50.794;7.054;2023-02-04T05:03:27;102568.56;;;6.86;100.00
72925;BME280;61070;50.794;7.054;2023-02-04T05:05:52;102566.63;;;6.80;100.00
72925;BME280;61070;50.794;7.054;2023-02-04T05:08:17;102576.50;;;6.87;100.00
72925;BME280;61070;50.794;7.054;2023-02-04T05:10:44;102576.81;;;6.96;100.00
72925;BME280;61070;50.794;7.054;2023-02-04T05:13:09;102576.53;;;6.89;100.00
72925;BME280;61070;50.794;7.054;2023-02-04T05:15:35;102579.84;;;6.82;100.00
72925;BME280;61070;50.794;7.054;2023-02-04T05:18:01;102572.66;;;6.78;100.00
72925;BME280;61070;50.794;7.054;2023-02-04T05:20:26;102574.25;;;6.72;100.00
72925;BME280;61070;50.794;7.054;2023-02-04T05:22:52;102585.19;;;6.85;100.00
72925;BME280;61070;50.794;7.054;2023-02-04T05:25:18;102576.19;;;6.78;100.00
72925;BME280;61070;50.794;7.054;2023-02-04T05:27:44;102573.50;;;6.77;100.00
72925;BME280;61070;50.794;7.054;2023-02-04T05:30:10;102582.19;;;6.74;100.00
72925;BME280;61070;50.794;7.054;2023-02-04T05:32:36;102583.31;;;6.81;100.00
72925;BME280;61070;50.794;7.054;2023-02-04T05:35:02;102581.63;;;6.83;100.00
72925;BME280;61070;50.794;7.054;2023-02-04T05:37:27;102589.63;;;6.86;100.00
72925;BME280;61070;50.794;7.054;2023-02-04T05:39:53;102596.63;;;6.85;100.00
72925;BME280;61070;50.794;7.054;2023-02-04T05:42:18;102600.16;;;6.86;100.00
72925;BME280;61070;50.794;7.054;2023-02-04T05:44:43;102604.22;;;6.76;100.00
72925;BME280;61070;50.794;7.054;2023-02-04T05:47:08;102601.59;;;6.76;100.00
72925;BME280;61070;50.794;7.054;2023-02-04T05:49:34;102595.38;;;6.74;100.00
72925;BME280;61070;50.794;7.054;2023-02-04T05:51:59;102603.19;;;6.71;100.00
72925;BME280;61070;50.794;7.054;2023-02-04T05:54:24;102610.22;;;6.72;100.00
72925;BME280;61070;50.794;7.054;2023-02-04T05:56:50;102613.00;;;6.77;100.00
72925;BME280;61070;50.794;7.054;2023-02-04T05:59:16;102617.25;;;6.71;100.00
72925;BME280;61070;50.794;7.054;2023-02-04T06:01:41;102615.44;;;6.70;100.00
72925;BME280;61070;50.794;7.054;2023-02-04T06:04:06;102617.28;;;6.73;100.00
72925;BME280;61070;50.794;7.054;2023-02-04T06:06:31;102624.25;;;6.71;100.00
72925;BME280;61070;50.794;7.054;2023-02-04T06:08:57;102633.13;;;6.75;100.00
72925;BME280;61070;50.794;7.054;2023-02-04T06:11:22;102623.88;;;6.86;100.00
72925;BME280;61070;50.794;7.054;2023-02-04T06:13:47;102624.63;;;6.82;100.00
72925;BME280;61070;50.794;7.054;2023-02-04T06:16:13;102630.88;;;6.85;100.00
72925;BME280;61070;50.794;7.054;2023-02-04T06:18:38;102632.63;;;6.85;100.00
72925;BME280;61070;50.794;7.054;2023-02-04T06:21:03;102639.41;;;6.78;100.00
72925;BME280;61070;50.794;7.054;2023-02-04T06:23:30;102640.38;;;6.80;100.00
72925;BME280;61070;50.794;7.054;2023-02-04T06:25:55;102645.47;;;6.76;100.00
72925;BME280;61070;50.794;7.054;2023-02-04T06:28:20;102649.31;;;6.85;100.00
72925;BME280;61070;50.794;7.054;2023-02-04T06:30:46;102650.69;;;6.74;100.00
72925;BME280;61070;50.794;7.054;2023-02-04T06:33:11;102661.13;;;6.71;100.00
72925;BME280;61070;50.794;7.054;2023-02-04T06:35:36;102647.19;;;6.75;100.00
72925;BME280;61070;50.794;7.054;2023-02-04T06:38:02;102653.38;;;6.76;100.00
72925;BME280;61070;50.794;7.054;2023-02-04T06:40:27;102659.38;;;6.71;100.00
72925;BME280;61070;50.794;7.054;2023-02-04T06:42:52;102663.78;;;6.72;100.00
72925;BME280;61070;50.794;7.054;2023-02-04T06:45:17;102663.84;;;6.74;100.00
72925;BME280;61070;50.794;7.054;2023-02-04T06:47:43;102660.22;;;6.70;100.00
72925;BME280;61070;50.794;7.054;2023-02-04T06:50:08;102661.66;;;6.62;100.00
72925;BME280;61070;50.794;7.054;2023-02-04T06:52:34;102656.50;;;6.65;100.00
72925;BME280;61070;50.794;7.054;2023-02-04T06:55:00;102665.06;;;6.58;100.00
72925;BME280;61070;50.794;7.054;2023-02-04T06:57:25;102664.25;;;6.61;100.00
72925;BME280;61070;50.794;7.054;2023-02-04T06:59:50;102658.28;;;6.66;100.00
72925;BME280;61070;50.794;7.054;2023-02-04T07:02:15;102659.78;;;6.58;100.00
72925;BME280;61070;50.794;7.054;2023-02-04T07:04:44;102661.38;;;6.55;100.00
72925;BME280;61070;50.794;7.054;2023-02-04T07:07:10;102662.41;;;6.58;100.00
72925;BME280;61070;50.794;7.054;2023-02-04T07:09:35;102671.22;;;6.59;100.00
72925;BME280;61070;50.794;7.054;2023-02-04T07:12:01;102667.50;;;6.54;100.00
72925;BME280;61070;50.794;7.054;2023-02-04T07:14:26;102673.66;;;6.54;100.00
72925;BME280;61070;50.794;7.054;2023-02-04T07:16:52;102678.72;;;6.48;100.00
72925;BME280;61070;50.794;7.054;2023-02-04T07:19:17;102682.25;;;6.49;100.00
72925;BME280;61070;50.794;7.054;2023-02-04T07:21:42;102688.22;;;6.45;100.00
72925;BME280;61070;50.794;7.054;2023-02-04T07:24:07;102689.09;;;6.45;100.00
72925;BME280;61070;50.794;7.054;2023-02-04T07:26:33;102691.81;;;6.47;100.00
72925;BME280;61070;50.794;7.054;2023-02-04T07:28:58;102692.72;;;6.47;100.00
72925;BME280;61070;50.794;7.054;2023-02-04T07:31:23;102694.38;;;6.45;100.00
72925;BME280;61070;50.794;7.054;2023-02-04T07:33:49;102694.50;;;6.48;100.00
72925;BME280;61070;50.794;7.054;2023-02-04T07:36:14;102700.66;;;6.49;100.00
72925;BME280;61070;50.794;7.054;2023-02-04T07:38:39;102699.94;;;6.53;100.00
72925;BME280;61070;50.794;7.054;2023-02-04T07:41:05;102697.50;;;6.57;100.00
72925;BME280;61070;50.794;7.054;2023-02-04T07:43:30;102711.69;;;6.62;100.00
72925;BME280;61070;50.794;7.054;2023-02-04T07:45:55;102706.50;;;6.64;100.00
72925;BME280;61070;50.794;7.054;2023-02-04T07:48:20;102714.44;;;6.65;100.00
72925;BME280;61070;50.794;7.054;2023-02-04T07:50:46;102721.63;;;6.69;100.00
72925;BME280;61070;50.794;7.054;2023-02-04T07:53:11;102720.75;;;6.69;100.00
72925;BME280;61070;50.794;7.054;2023-02-04T07:55:36;102721.63;;;6.69;100.00
72925;BME280;61070;50.794;7.054;2023-02-04T07:58:02;102733.97;;;6.70;100.00
72925;BME280;61070;50.794;7.054;2023-02-04T08:00:27;102727.06;;;6.74;100.00
72925;BME280;61070;50.794;7.054;2023-02-04T08:02:52;102729.97;;;6.82;100.00
72925;BME280;61070;50.794;7.054;2023-02-04T08:05:18;102734.34;;;6.81;100.00
72925;BME280;61070;50.794;7.054;2023-02-04T08:07:43;102730.88;;;6.82;100.00
72925;BME280;61070;50.794;7.054;2023-02-04T08:10:09;102737.03;;;6.83;100.00
72925;BME280;61070;50.794;7.054;2023-02-04T08:12:35;102744.84;;;6.80;100.00
72925;BME280;61070;50.794;7.054;2023-02-04T08:15:01;102739.47;;;6.78;100.00
72925;BME280;61070;50.794;7.054;2023-02-04T08:17:27;102746.31;;;6.97;100.00
72925;BME280;61070;50.794;7.054;2023-02-04T08:19:52;102747.56;;;6.83;100.00
72925;BME280;61070;50.794;7.054;2023-02-04T08:22:18;102746.81;;;6.87;100.00
72925;BME280;61070;50.794;7.054;2023-02-04T08:24:43;102748.97;;;6.97;100.00
72925;BME280;61070;50.794;7.054;2023-02-04T08:27:08;102741.47;;;6.84;100.00
72925;BME280;61070;50.794;7.054;2023-02-04T08:29:33;102737.03;;;6.83;100.00
72925;BME280;61070;50.794;7.054;2023-02-04T08:31:59;102746.81;;;6.87;100.00
72925;BME280;61070;50.794;7.054;2023-02-04T08:34:24;102750.69;;;6.96;100.00
72925;BME280;61070;50.794;7.054;2023-02-04T08:36:49;102749.69;;;6.93;100.00
72925;BME280;61070;50.794;7.054;2023-02-04T08:39:15;102755.03;;;6.94;100.00
72925;BME280;61070;50.794;7.054;2023-02-04T08:41:40;102756.81;;;6.95;100.00
72925;BME280;61070;50.794;7.054;2023-02-04T08:44:05;102763.19;;;7.02;100.00
72925;BME280;61070;50.794;7.054;2023-02-04T08:46:31;102758.47;;;7.17;100.00
72925;BME280;61070;50.794;7.054;2023-02-04T08:48:56;102763.69;;;7.16;100.00
72925;BME280;61070;50.794;7.054;2023-02-04T08:51:22;102758.63;;;7.22;100.00
72925;BME280;61070;50.794;7.054;2023-02-04T08:53:47;102758.09;;;7.32;100.00
72925;BME280;61070;50.794;7.054;2023-02-04T08:56:12;102761.22;;;7.20;100.00
72925;BME280;61070;50.794;7.054;2023-02-04T08:58:42;102758.63;;;7.22;100.00
72925;BME280;61070;50.794;7.054;2023-02-04T09:01:08;102768.56;;;7.29;100.00
72925;BME280;61070;50.794;7.054;2023-02-04T09:03:35;102773.97;;;7.34;100.00
72925;BME280;61070;50.794;7.054;2023-02-04T09:06:01;102779.03;;;7.53;100.00
72925;BME280;61070;50.794;7.054;2023-02-04T09:08:26;102780.41;;;7.42;100.00
72925;BME280;61070;50.794;7.054;2023-02-04T09:10:51;102783.28;;;7.48;100.00
72925;BME280;61070;50.794;7.054;2023-02-04T09:13:16;102783.28;;;7.48;100.00
72925;BME280;61070;50.794;7.054;2023-02-04T09:15:42;102791.38;;;7.54;100.00
72925;BME280;61070;50.794;7.054;2023-02-04T09:18:07;102794.00;;;7.54;100.00
72925;BME280;61070;50.794;7.054;2023-02-04T09:20:43;102796.56;;;7.51;100.00
72925;BME280;61070;50.794;7.054;2023-02-04T09:23:09;102793.38;;;7.61;100.00
72925;BME280;61070;50.794;7.054;2023-02-04T09:25:37;102801.34;;;7.63;100.00
72925;BME280;61070;50.794;7.054;2023-02-04T09:28:03;102800.47;;;7.62;100.00
72925;BME280;61070;50.794;7.054;2023-02-04T09:30:28;102808.03;;;7.78;100.00
72925;BME280;61070;50.794;7.054;2023-02-04T09:32:54;102801.28;;;7.86;99.72
72925;BME280;61070;50.794;7.054;2023-02-04T09:35:19;102802.03;;;7.82;98.46
72925;BME280;61070;50.794;7.054;2023-02-04T09:37:44;102798.09;;;7.97;96.87
72925;BME280;61070;50.794;7.054;2023-02-04T09:40:14;102797.28;;;7.99;97.32
72925;BME280;61070;50.794;7.054;2023-02-04T09:42:41;102804.34;;;8.00;96.25
72925;BME280;61070;50.794;7.054;2023-02-04T09:45:12;102807.84;;;7.99;96.12
72925;BME280;61070;50.794;7.054;2023-02-04T09:47:40;102808.75;;;8.00;95.36
72925;BME280;61070;50.794;7.054;2023-02-04T09:50:11;102820.50;;;8.09;95.60
72925;BME280;61070;50.794;7.054;2023-02-04T09:52:38;102824.75;;;8.04;95.90
72925;BME280;61070;50.794;7.054;2023-02-04T09:55:07;102828.81;;;7.95;96.09
72925;BME280;61070;50.794;7.054;2023-02-04T09:57:34;102835.75;;;8.18;95.93
72925;BME280;61070;50.794;7.054;2023-02-04T09:59:59;102840.22;;;8.21;95.49
72925;BME280;61070;50.794;7.054;2023-02-04T10:02:25;102828.75;;;8.20;94.93
72925;BME280;61070;50.794;7.054;2023-02-04T10:04:54;102837.94;;;8.31;95.18
72925;BME280;61070;50.794;7.054;2023-02-04T10:07:21;102838.47;;;8.21;94.66
72925;BME280;61070;50.794;7.054;2023-02-04T10:09:50;102830.34;;;8.40;94.53
72925;BME280;61070;50.794;7.054;2023-02-04T10:12:16;102835.78;;;8.46;94.79
72925;BME280;61070;50.794;7.054;2023-02-04T10:14:42;102837.50;;;8.44;93.76
72925;BME280;61070;50.794;7.054;2023-02-04T10:17:08;102835.75;;;8.18;93.67
72925;BME280;61070;50.794;7.054;2023-02-04T10:19:34;102842.41;;;8.34;93.53
72925;BME280;61070;50.794;7.054;2023-02-04T10:21:59;102836.63;;;8.18;93.14
72925;BME280;61070;50.794;7.054;2023-02-04T10:24:26;102835.88;;;8.23;93.06
72925;BME280;61070;50.794;7.054;2023-02-04T10:27:06;102845.53;;;8.22;93.72
72925;BME280;61070;50.794;7.054;2023-02-04T10:29:31;102843.41;;;8.37;93.40
72925;BME280;61070;50.794;7.054;2023-02-04T10:31:56;102851.16;;;8.60;92.14
72925;BME280;61070;50.794;7.054;2023-02-04T10:34:22;102841.06;;;8.46;92.63
72925;BME280;61070;50.794;7.054;2023-02-04T10:36:52;102843.00;;;8.25;92.49
72925;BME280;61070;50.794;7.054;2023-02-04T10:39:23;102835.50;;;8.37;92.10
72925;BME280;61070;50.794;7.054;2023-02-04T10:41:50;102841.38;;;8.56;91.63
72925;BME280;61070;50.794;7.054;2023-02-04T10:44:25;102836.69;;;8.47;91.99
72925;BME280;61070;50.794;7.054;2023-02-04T10:46:59;102838.72;;;8.56;91.42
72925;BME280;61070;50.794;7.054;2023-02-04T10:49:24;102841.38;;;8.56;91.13
72925;BME280;61070;50.794;7.054;2023-02-04T10:51:51;102838.59;;;8.51;92.13
72925;BME280;61070;50.794;7.054;2023-02-04T10:54:19;102833.16;;;8.46;92.31
72925;BME280;61070;50.794;7.054;2023-02-04T10:56:54;102838.59;;;8.51;92.33
72925;BME280;61070;50.794;7.054;2023-02-04T10:59:23;102837.13;;;8.61;91.02
72925;BME280;61070;50.794;7.054;2023-02-04T11:01:53;102840.69;;;8.61;91.33
72925;BME280;61070;50.794;7.054;2023-02-04T11:04:18;102836.38;;;8.65;90.89
72925;BME280;61070;50.794;7.054;2023-02-04T11:06:44;102834.56;;;8.35;91.48
72925;BME280;61070;50.794;7.054;2023-02-04T11:09:13;102835.91;;;8.50;91.51
72925;BME280;61070;50.794;7.054;2023-02-04T11:11:44;102831.59;;;8.53;90.56
72925;BME280;61070;50.794;7.054;2023-02-04T11:14:28;102840.75;;;8.64;90.06
72925;BME280;61070;50.794;7.054;2023-02-04T11:16:56;102833.31;;;8.51;90.51
72925;BME280;61070;50.794;7.054;2023-02-04T11:19:35;102835.84;;;8.48;90.90
72925;BME280;61070;50.794;7.054;2023-02-04T11:22:06;102836.34;;;8.63;91.27
72925;BME280;61070;50.794;7.054;2023-02-04T11:24:32;102842.41;;;8.61;90.73
72925;BME280;61070;50.794;7.054;2023-02-04T11:27:19;102841.81;;;8.71;90.56
72925;BME280;61070;50.794;7.054;2023-02-04T11:29:46;102838.44;;;8.75;90.25
72925;BME280;61070;50.794;7.054;2023-02-04T11:32:36;102842.88;;;8.76;89.90
72925;BME280;61070;50.794;7.054;2023-02-04T11:35:26;102839.66;;;8.86;90.04
72925;BME280;61070;50.794;7.054;2023-02-04T11:37:53;102840.50;;;8.85;90.17
72925;BME280;61070;50.794;7.054;2023-02-04T11:42:47;102835.97;;;8.81;90.75
72925;BME280;61070;50.794;7.054;2023-02-04T11:45:15;102839.53;;;8.83;90.52
72925;BME280;61070;50.794;7.054;2023-02-04T11:47:42;102845.22;;;8.67;90.20
72925;BME280;61070;50.794;7.054;2023-02-04T11:50:30;102842.16;;;8.82;89.65
72925;BME280;61070;50.794;7.054;2023-02-04T11:52:57;102836.75;;;8.77;89.57
72925;BME280;61070;50.794;7.054;2023-02-04T11:55:24;102835.97;;;8.81;89.31
72925;BME280;61070;50.794;7.054;2023-02-04T11:57:53;102840.47;;;8.84;89.22
72925;BME280;61070;50.794;7.054;2023-02-04T12:00:21;102836.00;;;8.83;89.38
72925;BME280;61070;50.794;7.054;2023-02-04T12:03:02;102843.94;;;8.83;89.11
72925;BME280;61070;50.794;7.054;2023-02-04T12:05:44;102843.41;;;8.94;89.21
72925;BME280;61070;50.794;7.054;2023-02-04T12:10:49;102844.56;;;9.04;87.88
72925;BME280;61070;50.794;7.054;2023-02-04T12:13:22;102850.56;;;9.28;86.35
72925;BME280;61070;50.794;7.054;2023-02-04T12:15:58;102855.56;;;9.18;85.93
72925;BME280;61070;50.794;7.054;2023-02-04T12:18:25;102846.03;;;9.24;86.02
72925;BME280;61070;50.794;7.054;2023-02-04T12:20:54;102843.44;;;9.26;85.30
72925;BME280;61070;50.794;7.054;2023-02-04T12:23:20;102843.25;;;9.18;84.57
72925;BME280;61070;50.794;7.054;2023-02-04T12:25:46;102849.59;;;9.25;84.77
72925;BME280;61070;50.794;7.054;2023-02-04T12:28:12;102847.31;;;9.39;84.13
72925;BME280;61070;50.794;7.054;2023-02-04T12:30:37;102849.63;;;9.26;83.33
72925;BME280;61070;50.794;7.054;2023-02-04T12:33:02;102841.66;;;9.25;84.04
72925;BME280;61070;50.794;7.054;2023-02-04T12:35:28;102846.72;;;9.17;84.27
72925;BME280;61070;50.794;7.054;2023-02-04T12:37:53;102840.91;;;9.29;83.04
72925;BME280;61070;50.794;7.054;2023-02-04T12:40:20;102836.59;;;9.32;83.50
72925;BME280;61070;50.794;7.054;2023-02-04T12:42:45;102842.53;;;9.25;81.41
72925;BME280;61070;50.794;7.054;2023-02-04T12:45:12;102836.94;;;9.46;80.41
72925;BME280;61070;50.794;7.054;2023-02-04T12:47:38;102845.47;;;9.36;80.60
72925;BME280;61070;50.794;7.054;2023-02-04T12:50:05;102836.81;;;9.40;80.69
72925;BME280;61070;50.794;7.054;2023-02-04T12:52:31;102836.41;;;9.59;81.12
72925;BME280;61070;50.794;7.054;2023-02-04T12:54:56;102848.66;;;9.54;80.55
72925;BME280;61070;50.794;7.054;2023-02-04T12:57:21;102839.06;;;9.59;80.80
72925;BME280;61070;50.794;7.054;2023-02-04T12:59:47;102832.34;;;9.72;80.99